Time;durP1;ratioP1;P1;durP2;ratioP2;P2;SDS_P1;SDS_P2;PMS_P1;PMS_P2;Temp;Humidity;BMP_temperature;BMP_pressure;BME280_temperature;BME280_humidity;BME280_pressure;Samples;Min_cycle;Max_cycle;Signal;HPM_P1;HPM_P2
2021/10/01 00:02:19;;;;;;;15.75;2.47;;;;;;;;;;4991673;28;20397;-57
2021/10/01 00:04:45;;;;;;;16.50;2.33;;;;;;;;;;4996018;28;20066;-58
2021/10/01 00:07:11;;;;;;;15.57;2.47;;;;;;;;;;5005525;28;20409;-57
2021/10/01 00:09:37;;;;;;;25.45;2.83;;;;;;;;;;5005913;28;20520;-58
2021/10/01 00:12:04;;;;;;;19.75;2.97;;;;;;;;;;4997546;28;20033;-58
2021/10/01 00:14:29;;;;;;;12.52;2.50;;;;;;;;;;4998967;28;20034;-58
2021/10/01 00:16:55;;;;;;;12.65;2.50;;;;;;;;;;4998062;28;20409;-58
2021/10/01 00:19:22;;;;;;;15.82;3.17;;;;;;;;;;4999823;28;20046;-57
2021/10/01 00:21:48;;;;;;;13.45;2.55;;;;;;;;;;5001790;28;20105;-58
2021/10/01 00:24:14;;;;;;;19.15;2.30;;;;;;;;;;5000169;28;20117;-58
2021/10/01 00:26:40;;;;;;;17.88;2.20;;;;;;;;;;4996405;28;20049;-58
2021/10/01 00:29:07;;;;;;;19.30;2.97;;;;;;;;;;5002577;28;20037;-58
2021/10/01 00:31:33;;;;;;;21.85;2.53;;;;;;;;;;5001834;28;20117;-58
2021/10/01 00:34:01;;;;;;;16.73;2.40;;;;;;;;;;4999783;28;20165;-58
2021/10/01 00:36:27;;;;;;;24.63;2.88;;;;;;;;;;5000400;28;20118;-58
2021/10/01 00:38:52;;;;;;;25.98;3.03;;;;;;;;;;5002280;28;20022;-58
2021/10/01 00:41:18;;;;;;;18.65;2.40;;;;;;;;;;5002504;28;20795;-58
2021/10/01 00:43:44;;;;;;;17.30;2.42;;;;;;;;;;4997555;28;20083;-58
2021/10/01 00:46:09;;;;;;;15.18;2.67;;;;;;;;;;4997326;28;20053;-58
2021/10/01 00:48:35;;;;;;;17.58;2.20;;;;;;;;;;4997437;28;20037;-58
2021/10/01 00:51:00;;;;;;;22.30;2.45;;;;;;;;;;4996309;28;20436;-58
2021/10/01 00:53:26;;;;;;;11.15;2.20;;;;;;;;;;4998200;28;20053;-58
2021/10/01 00:55:52;;;;;;;22.75;3.03;;;;;;;;;;4999150;28;20068;-58
2021/10/01 00:58:17;;;;;;;19.20;2.72;;;;;;;;;;4995978;28;20056;-58
2021/10/01 01:01:02;;;;;;;20.90;2.65;;;;;;;;;;5009134;28;20072;-57
2021/10/01 01:03:28;;;;;;;14.07;2.35;;;;;;;;;;5020456;28;20567;-58
2021/10/01 01:06:08;;;;;;;15.88;2.72;;;;;;;;;;5017897;28;20045;-58
2021/10/01 01:08:49;;;;;;;25.17;2.88;;;;;;;;;;5018415;28;20036;-57
2021/10/01 01:11:32;;;;;;;11.32;1.92;;;;;;;;;;5020753;28;20018;-57
2021/10/01 01:14:05;;;;;;;19.77;2.15;;;;;;;;;;5023444;28;20091;-58
2021/10/01 01:16:34;;;;;;;12.80;2.05;;;;;;;;;;5020495;28;20072;-58
2021/10/01 01:19:02;;;;;;;14.38;1.80;;;;;;;;;;5017326;28;20064;-58
2021/10/01 01:21:57;;;;;;;15.70;3.05;;;;;;;;;;5016081;28;20049;-58
2021/10/01 01:24:42;;;;;;;11.80;1.65;;;;;;;;;;5023888;28;20048;-58
2021/10/01 01:27:31;;;;;;;16.48;3.17;;;;;;;;;;5020708;28;20030;-58
2021/10/01 01:30:04;;;;;;;15.18;2.10;;;;;;;;;;5015481;28;20115;-59
2021/10/01 01:32:30;;;;;;;;;;;;;;;;;;5020351;28;20112;-58
2021/10/01 01:35:04;;;;;;;15.38;2.38;;;;;;;;;;5018121;28;20014;-58
2021/10/01 01:37:44;;;;;;;12.85;1.85;;;;;;;;;;5014911;28;20044;-58
2021/10/01 01:40:11;;;;;;;10.18;2.20;;;;;;;;;;5017018;28;20117;-58
2021/10/01 01:42:39;;;;;;;15.35;2.72;;;;;;;;;;5021899;28;20135;-58
2021/10/01 01:45:07;;;;;;;13.45;2.58;;;;;;;;;;5016033;28;20060;-59
2021/10/01 01:47:34;;;;;;;15.90;3.20;;;;;;;;;;5016678;28;20112;-58
2021/10/01 01:50:01;;;;;;;18.75;2.00;;;;;;;;;;5015132;28;20407;-58
2021/10/01 01:52:28;;;;;;;19.42;2.50;;;;;;;;;;5015888;28;20486;-58
2021/10/01 01:54:54;;;;;;;18.05;2.45;;;;;;;;;;5014888;28;20159;-58
2021/10/01 01:57:23;;;;;;;9.95;2.13;;;;;;;;;;5019023;28;20091;-58
2021/10/01 01:59:49;;;;;;;10.85;1.70;;;;;;;;;;5017291;28;20029;-58
2021/10/01 02:02:16;;;;;;;14.32;2.10;;;;;;;;;;5021892;28;20531;-58
2021/10/01 02:04:43;;;;;;;15.60;1.92;;;;;;;;;;5019315;28;20044;-58
2021/10/01 02:07:10;;;;;;;15.05;2.03;;;;;;;;;;5013314;28;20918;-58
2021/10/01 02:09:36;;;;;;;12.50;2.00;;;;;;;;;;5017193;28;20041;-58
2021/10/01 02:12:03;;;;;;;13.65;1.52;;;;;;;;;;5016118;28;20108;-58
2021/10/01 02:14:33;;;;;;;21.42;2.35;;;;;;;;;;5016177;28;20418;-58
2021/10/01 02:16:59;;;;;;;10.60;1.75;;;;;;;;;;5018540;28;20048;-58
2021/10/01 02:19:29;;;;;;;16.75;2.50;;;;;;;;;;5018514;28;20069;-58
2021/10/01 02:21:56;;;;;;;14.63;1.70;;;;;;;;;;5017953;28;20073;-58
2021/10/01 02:24:27;;;;;;;11.82;1.70;;;;;;;;;;5013781;28;20512;-58
2021/10/01 02:27:13;;;;;;;18.02;2.13;;;;;;;;;;5017415;28;20515;-58
2021/10/01 02:29:53;;;;;;;18.60;1.75;;;;;;;;;;5011397;28;20029;-59
2021/10/01 02:32:40;;;;;;;16.63;2.03;;;;;;;;;;5021416;28;20037;-58
2021/10/01 02:35:07;;;;;;;15.50;1.92;;;;;;;;;;5013656;28;20033;-58
2021/10/01 02:37:33;;;;;;;12.18;2.15;;;;;;;;;;5016835;28;20407;-58
2021/10/01 02:40:00;;;;;;;10.82;1.77;;;;;;;;;;5015919;28;20107;-58
2021/10/01 02:42:28;;;;;;;14.52;1.67;;;;;;;;;;5017291;28;20681;-57
2021/10/01 02:44:54;;;;;;;15.70;1.85;;;;;;;;;;5018848;28;20033;-57
2021/10/01 02:47:26;;;;;;;15.18;2.05;;;;;;;;;;5021141;28;20057;-58
2021/10/01 02:49:51;;;;;;;9.85;1.88;;;;;;;;;;5016743;28;20048;-57
2021/10/01 02:52:33;;;;;;;16.13;1.75;;;;;;;;;;5014365;28;20481;-57
2021/10/01 02:55:06;;;;;;;10.77;2.07;;;;;;;;;;5018922;28;20029;-57
2021/10/01 02:58:00;;;;;;;11.68;2.17;;;;;;;;;;5015894;28;20496;-57
2021/10/01 03:00:26;;;;;;;18.17;2.75;;;;;;;;;;5022718;28;20041;-58
2021/10/01 03:02:53;;;;;;;14.57;1.65;;;;;;;;;;5017438;28;20032;-57
2021/10/01 03:05:20;;;;;;;13.02;1.42;;;;;;;;;;5017255;28;20429;-57
2021/10/01 03:07:47;;;;;;;16.83;2.08;;;;;;;;;;5018533;28;20079;-57
2021/10/01 03:10:13;;;;;;;19.55;2.13;;;;;;;;;;5016963;28;20033;-57
2021/10/01 03:12:41;;;;;;;17.98;2.47;;;;;;;;;;5017793;28;20030;-58
2021/10/01 03:15:11;;;;;;;13.13;2.42;;;;;;;;;;5017298;28;20037;-57
2021/10/01 03:17:37;;;;;;;10.23;2.28;;;;;;;;;;5017501;28;20478;-58
2021/10/01 03:20:03;;;;;;;9.43;1.45;;;;;;;;;;5012490;28;20123;-58
2021/10/01 03:22:32;;;;;;;16.45;1.85;;;;;;;;;;5012628;28;20135;-58
2021/10/01 03:25:00;;;;;;;17.73;2.17;;;;;;;;;;5011657;28;20678;-58
2021/10/01 03:27:35;;;;;;;18.33;2.70;;;;;;;;;;5020381;28;20138;-60
2021/10/01 03:30:03;;;;;;;12.63;1.52;;;;;;;;;;5012459;28;20486;-58
2021/10/01 03:32:32;;;;;;;17.98;1.70;;;;;;;;;;5018956;28;20037;-58
2021/10/01 03:35:01;;;;;;;17.05;1.92;;;;;;;;;;5016170;28;20060;-58
2021/10/01 03:37:28;;;;;;;11.30;1.75;;;;;;;;;;5017205;28;20037;-58
2021/10/01 03:39:59;;;;;;;26.45;2.53;;;;;;;;;;5015991;28;20080;-59
2021/10/01 03:42:25;;;;;;;14.68;1.98;;;;;;;;;;5016614;28;20041;-58
2021/10/01 03:44:51;;;;;;;10.73;1.45;;;;;;;;;;5015267;28;20040;-59
2021/10/01 03:47:17;;;;;;;12.07;1.70;;;;;;;;;;5018661;28;20033;-58
2021/10/01 03:49:43;;;;;;;13.23;2.47;;;;;;;;;;5017405;28;20070;-58
2021/10/01 03:52:10;;;;;;;12.68;1.88;;;;;;;;;;5015127;28;20281;-58
2021/10/01 03:54:37;;;;;;;14.50;1.90;;;;;;;;;;5018435;28;20025;-58
2021/10/01 03:57:03;;;;;;;10.13;1.85;;;;;;;;;;5019395;28;20038;-58
2021/10/01 03:59:29;;;;;;;15.85;3.35;;;;;;;;;;5014274;28;20111;-58
2021/10/01 04:01:54;;;;;;;21.25;2.30;;;;;;;;;;5020878;28;20025;-58
2021/10/01 04:04:19;;;;;;;14.52;1.75;;;;;;;;;;5026702;28;20562;-58
2021/10/01 04:06:45;;;;;;;16.10;1.67;;;;;;;;;;5023637;28;20036;-57
2021/10/01 04:09:11;;;;;;;18.05;2.45;;;;;;;;;;5018541;28;20037;-58
2021/10/01 04:11:38;;;;;;;11.25;1.70;;;;;;;;;;5013434;28;20030;-58
2021/10/01 04:14:04;;;;;;;7.25;0.93;;;;;;;;;;5023915;28;20517;-57
2021/10/01 04:16:30;;;;;;;6.45;1.10;;;;;;;;;;5019692;28;20037;-57
2021/10/01 04:18:55;;;;;;;9.95;1.02;;;;;;;;;;5016229;28;20044;-57
2021/10/01 04:21:21;;;;;;;6.63;1.15;;;;;;;;;;5017476;28;20566;-57
2021/10/01 04:23:46;;;;;;;5.72;0.90;;;;;;;;;;5020978;28;20061;-57
2021/10/01 04:26:12;;;;;;;10.35;0.95;;;;;;;;;;5021978;28;20094;-57
2021/10/01 04:28:37;;;;;;;7.40;1.00;;;;;;;;;;5022655;28;20029;-57
2021/10/01 04:31:03;;;;;;;6.75;0.65;;;;;;;;;;5019409;28;20028;-57
2021/10/01 04:33:33;;;;;;;5.80;1.13;;;;;;;;;;5014547;28;20566;-57
2021/10/01 04:35:59;;;;;;;4.25;0.57;;;;;;;;;;5018226;28;20133;-57
2021/10/01 04:38:25;;;;;;;8.75;1.10;;;;;;;;;;5020647;28;20077;-57
2021/10/01 04:40:50;;;;;;;6.03;1.00;;;;;;;;;;5020766;28;20586;-57
2021/10/01 04:43:17;;;;;;;8.65;1.02;;;;;;;;;;5023867;28;20475;-57
2021/10/01 04:45:43;;;;;;;6.38;1.08;;;;;;;;;;5018516;28;20025;-57
2021/10/01 04:48:09;;;;;;;9.13;1.10;;;;;;;;;;5023180;28;20208;-57
2021/10/01 04:50:35;;;;;;;7.07;0.95;;;;;;;;;;5017108;28;20492;-59
2021/10/01 04:53:01;;;;;;;8.88;0.73;;;;;;;;;;5021010;28;20357;-59
2021/10/01 04:55:28;;;;;;;11.80;1.27;;;;;;;;;;5016954;28;20408;-59
2021/10/01 04:57:54;;;;;;;8.05;0.90;;;;;;;;;;5018689;28;20037;-59
2021/10/01 05:00:20;;;;;;;4.43;0.55;;;;;;;;;;5021551;28;20041;-59
2021/10/01 05:02:46;;;;;;;4.05;0.70;;;;;;;;;;5017262;28;20480;-59
2021/10/01 05:05:12;;;;;;;6.35;1.25;;;;;;;;;;5017232;28;20048;-59
2021/10/01 05:07:37;;;;;;;12.38;0.82;;;;;;;;;;5016563;28;20041;-58
2021/10/01 05:10:07;;;;;;;7.03;0.60;;;;;;;;;;5020717;28;20032;-58
2021/10/01 05:12:33;;;;;;;8.23;1.33;;;;;;;;;;5022106;28;20029;-58
2021/10/01 05:14:58;;;;;;;8.20;0.73;;;;;;;;;;5015905;28;20045;-58
2021/10/01 05:17:24;;;;;;;4.88;1.33;;;;;;;;;;5020617;28;20054;-58
2021/10/01 05:19:49;;;;;;;3.17;0.35;;;;;;;;;;5015967;28;20072;-58
2021/10/01 05:22:16;;;;;;;6.07;0.70;;;;;;;;;;5015677;28;20041;-59
2021/10/01 05:24:42;;;;;;;5.88;0.63;;;;;;;;;;5014374;28;20427;-59
2021/10/01 05:27:08;;;;;;;9.80;1.23;;;;;;;;;;5017071;28;20037;-58
2021/10/01 05:29:34;;;;;;;12.63;1.05;;;;;;;;;;5015026;28;20048;-59
2021/10/01 05:31:59;;;;;;;4.75;0.47;;;;;;;;;;5014686;28;20025;-58
2021/10/01 05:34:25;;;;;;;11.77;0.90;;;;;;;;;;5019608;28;20039;-59
2021/10/01 05:36:51;;;;;;;7.47;0.80;;;;;;;;;;5020903;28;20037;-58
2021/10/01 05:39:16;;;;;;;8.50;0.70;;;;;;;;;;5017113;28;20033;-58
2021/10/01 05:41:42;;;;;;;8.98;0.70;;;;;;;;;;5013817;28;20152;-58
2021/10/01 05:44:08;;;;;;;5.90;0.77;;;;;;;;;;5014197;28;20037;-59
2021/10/01 05:46:35;;;;;;;7.10;0.60;;;;;;;;;;5016247;28;20025;-59
2021/10/01 05:49:02;;;;;;;6.15;0.65;;;;;;;;;;5013735;28;20034;-58
2021/10/01 05:51:29;;;;;;;5.15;0.60;;;;;;;;;;5014196;28;20107;-58
2021/10/01 05:56:32;;;;;;;6.15;0.63;;;;;;;;;;5019049;28;20040;-58
2021/10/01 05:58:57;;;;;;;8.75;1.50;;;;;;;;;;5020192;28;20029;-58
2021/10/01 06:01:23;;;;;;;6.47;0.55;;;;;;;;;;5017504;28;20044;-58
2021/10/01 06:03:49;;;;;;;4.50;0.47;;;;;;;;;;5013156;28;20034;-59
2021/10/01 06:06:15;;;;;;;10.05;0.63;;;;;;;;;;5022551;28;20058;-58
2021/10/01 06:08:40;;;;;;;10.45;1.15;;;;;;;;;;5020897;28;20045;-58
2021/10/01 06:11:06;;;;;;;9.27;1.08;;;;;;;;;;5024708;28;20148;-58
2021/10/01 06:13:31;;;;;;;11.68;0.77;;;;;;;;;;5022416;28;20073;-58
2021/10/01 06:15:57;;;;;;;3.47;0.32;;;;;;;;;;5018830;28;20667;-58
2021/10/01 06:18:22;;;;;;;3.78;0.43;;;;;;;;;;5016213;28;20455;-58
2021/10/01 06:20:48;;;;;;;8.90;1.13;;;;;;;;;;5020498;28;20068;-58
2021/10/01 06:23:14;;;;;;;7.80;0.28;;;;;;;;;;5016541;28;20558;-58
2021/10/01 06:25:41;;;;;;;6.57;0.47;;;;;;;;;;5017655;28;20052;-58
2021/10/01 06:28:07;;;;;;;4.32;0.30;;;;;;;;;;5020272;28;20041;-58
2021/10/01 06:30:32;;;;;;;8.02;0.68;;;;;;;;;;5012386;28;20415;-58
2021/10/01 06:32:58;;;;;;;7.68;0.43;;;;;;;;;;5016639;28;20064;-58
2021/10/01 06:35:23;;;;;;;5.53;0.52;;;;;;;;;;5012687;28;20021;-57
2021/10/01 06:37:49;;;;;;;8.55;0.40;;;;;;;;;;5012515;28;20100;-57
2021/10/01 06:40:14;;;;;;;12.38;0.80;;;;;;;;;;5019371;28;20029;-57
2021/10/01 06:42:45;;;;;;;3.92;0.60;;;;;;;;;;5019604;28;20040;-57
2021/10/01 06:45:15;;;;;;;8.48;0.82;;;;;;;;;;5013933;28;20554;-58
2021/10/01 06:50:50;;;;;;;5.30;0.55;;;;;;;;;;5017910;28;20106;-58
2021/10/01 08:20:26;;;;;;;9.68;0.45;;;;;;;;;;5019392;28;20530;-58
2021/10/01 08:22:52;;;;;;;7.07;0.35;;;;;;;;;;5023627;28;20049;-59
2021/10/01 08:25:17;;;;;;;10.63;0.35;;;;;;;;;;5022038;28;20538;-58
2021/10/01 08:27:43;;;;;;;12.38;1.45;;;;;;;;;;5018475;28;20569;-58
2021/10/01 08:30:10;;;;;;;7.55;0.70;;;;;;;;;;5021523;28;20145;-59
2021/10/01 08:32:37;;;;;;;11.07;0.60;;;;;;;;;;5028465;28;20028;-59
2021/10/01 08:35:03;;;;;;;10.60;0.93;;;;;;;;;;5017015;28;20060;-59
2021/10/01 08:37:29;;;;;;;17.73;1.80;;;;;;;;;;5017087;28;20041;-58
2021/10/01 08:39:55;;;;;;;10.30;1.25;;;;;;;;;;5018394;28;20084;-58
2021/10/01 08:42:21;;;;;;;4.60;0.60;;;;;;;;;;5022753;28;20672;-59
2021/10/01 08:44:48;;;;;;;15.25;1.60;;;;;;;;;;5018070;28;20033;-59
2021/10/01 08:47:16;;;;;;;7.82;0.70;;;;;;;;;;5020864;28;20415;-58
2021/10/01 08:49:48;;;;;;;10.40;0.77;;;;;;;;;;5025242;28;20048;-59
2021/10/01 08:52:14;;;;;;;12.93;1.40;;;;;;;;;;5017338;28;20025;-60
2021/10/01 08:54:41;;;;;;;10.05;0.60;;;;;;;;;;5014186;28;20034;-59
2021/10/01 08:57:10;;;;;;;9.80;1.00;;;;;;;;;;5018444;28;20049;-60
2021/10/01 08:59:36;;;;;;;13.75;0.90;;;;;;;;;;5025766;28;20065;-59
2021/10/01 09:02:03;;;;;;;12.25;1.13;;;;;;;;;;5021868;28;20509;-59
2021/10/01 09:04:28;;;;;;;13.95;1.38;;;;;;;;;;5018903;28;20064;-59
2021/10/01 09:06:55;;;;;;;12.30;1.30;;;;;;;;;;5014730;28;20069;-58
2021/10/01 09:09:34;;;;;;;23.95;1.48;;;;;;;;;;5014956;28;20528;-59
2021/10/01 09:12:01;;;;;;;16.30;0.90;;;;;;;;;;5018526;28;20156;-59
2021/10/01 09:14:27;;;;;;;8.05;0.55;;;;;;;;;;5021823;28;20029;-60
2021/10/01 09:16:52;;;;;;;8.02;0.75;;;;;;;;;;5018053;28;20033;-59
2021/10/01 09:19:18;;;;;;;4.45;0.80;;;;;;;;;;5014195;28;20152;-59
2021/10/01 09:21:48;;;;;;;7.88;1.15;;;;;;;;;;5017437;28;20560;-58
2021/10/01 09:24:23;;;;;;;10.18;1.05;;;;;;;;;;5025095;28;20021;-59
2021/10/01 09:26:55;;;;;;;13.43;0.88;;;;;;;;;;5018181;28;20018;-58
2021/10/01 09:29:31;;;;;;;9.00;1.42;;;;;;;;;;5025055;28;20600;-59
2021/10/01 09:31:58;;;;;;;5.65;0.77;;;;;;;;;;5018809;28;20108;-59
2021/10/01 09:34:24;;;;;;;9.00;1.15;;;;;;;;;;5026316;28;20102;-59
2021/10/01 09:37:01;;;;;;;10.07;0.70;;;;;;;;;;5024627;28;20435;-58
2021/10/01 09:39:33;;;;;;;7.55;1.10;;;;;;;;;;5017212;28;20037;-58
2021/10/01 09:42:08;;;;;;;7.05;0.85;;;;;;;;;;5025488;28;20029;-58
2021/10/01 09:44:33;;;;;;;5.38;0.52;;;;;;;;;;5026565;28;20033;-58
2021/10/01 09:47:05;;;;;;;9.65;0.93;;;;;;;;;;5025033;28;20036;-59
2021/10/01 09:49:34;;;;;;;12.48;1.75;;;;;;;;;;5022823;28;20167;-59
2021/10/01 09:52:00;;;;;;;8.85;0.75;;;;;;;;;;5025916;28;20029;-59
2021/10/01 09:54:28;;;;;;;8.98;0.88;;;;;;;;;;5021590;28;20033;-60
2021/10/01 09:57:03;;;;;;;5.82;0.80;;;;;;;;;;5023975;28;20025;-58
2021/10/01 09:59:30;;;;;;;8.88;0.90;;;;;;;;;;5024561;28;20033;-58
2021/10/01 10:02:15;;;;;;;8.93;0.52;;;;;;;;;;5014043;28;20025;-58
2021/10/01 10:04:45;;;;;;;11.07;1.35;;;;;;;;;;5022036;28;20022;-58
2021/10/01 10:07:20;;;;;;;11.65;1.13;;;;;;;;;;5022341;28;20075;-58
2021/10/01 10:09:52;;;;;;;12.27;1.00;;;;;;;;;;5017486;28;20036;-59
2021/10/01 10:12:41;;;;;;;16.30;1.33;;;;;;;;;;5021503;28;20033;-58
2021/10/01 10:15:17;;;;;;;7.85;0.85;;;;;;;;;;5024664;28;20041;-58
2021/10/01 10:17:50;;;;;;;6.85;1.15;;;;;;;;;;5023556;28;20034;-59
2021/10/01 10:20:17;;;;;;;7.90;1.00;;;;;;;;;;5017821;28;20108;-59
2021/10/01 10:22:43;;;;;;;10.80;0.95;;;;;;;;;;5025116;28;20022;-59
2021/10/01 10:25:09;;;;;;;10.13;0.95;;;;;;;;;;5017519;28;20041;-59
2021/10/01 10:27:34;;;;;;;10.98;0.85;;;;;;;;;;5010867;28;20037;-59
2021/10/01 10:30:00;;;;;;;13.35;1.10;;;;;;;;;;5016564;28;20033;-59
2021/10/01 10:32:30;;;;;;;14.48;1.02;;;;;;;;;;5019151;28;20107;-59
2021/10/01 10:34:59;;;;;;;6.90;0.60;;;;;;;;;;5023084;28;20028;-59
2021/10/01 10:37:46;;;;;;;12.10;1.17;;;;;;;;;;5019657;28;20056;-59
2021/10/01 10:40:15;;;;;;;4.93;0.70;;;;;;;;;;5019841;28;20657;-59
2021/10/01 10:42:46;;;;;;;8.98;0.80;;;;;;;;;;5016796;28;20073;-59
2021/10/01 10:45:17;;;;;;;7.63;0.93;;;;;;;;;;5020617;28;20040;-59
2021/10/01 10:47:47;;;;;;;9.52;1.52;;;;;;;;;;5020365;28;20116;-59
2021/10/01 10:50:21;;;;;;;8.80;0.75;;;;;;;;;;5019414;28;20466;-59
2021/10/01 10:53:12;;;;;;;7.55;1.42;;;;;;;;;;5017931;28;20047;-59
2021/10/01 10:56:06;;;;;;;8.13;1.15;;;;;;;;;;5016717;28;20048;-58
2021/10/01 10:58:32;;;;;;;6.80;1.05;;;;;;;;;;5010253;28;20030;-59
2021/10/01 11:01:25;;;;;;;4.97;0.80;;;;;;;;;;5023271;28;20018;-59
2021/10/01 11:04:18;;;;;;;20.13;1.40;;;;;;;;;;5021022;28;20069;-59
2021/10/01 11:06:44;;;;;;;10.00;1.65;;;;;;;;;;5016061;28;20663;-59
2021/10/01 11:09:12;;;;;;;13.13;1.25;;;;;;;;;;5015135;28;20036;-59
2021/10/01 11:11:39;;;;;;;13.45;1.50;;;;;;;;;;5016687;28;20488;-59
2021/10/01 11:14:22;;;;;;;7.97;0.95;;;;;;;;;;5021484;28;20042;-59
2021/10/01 11:16:53;;;;;;;9.45;1.10;;;;;;;;;;5027872;28;20069;-59
2021/10/01 11:19:35;;;;;;;15.63;2.03;;;;;;;;;;5019921;28;20033;-60
2021/10/01 11:22:30;;;;;;;13.90;1.35;;;;;;;;;;5020437;28;20523;-60
2021/10/01 11:25:17;;;;;;;9.88;0.60;;;;;;;;;;5022030;28;20421;-59
2021/10/01 11:27:50;;;;;;;8.85;0.80;;;;;;;;;;5020589;28;20021;-59
2021/10/01 11:30:16;;;;;;;13.55;2.33;;;;;;;;;;5020035;28;20033;-59
2021/10/01 11:32:42;;;;;;;6.13;0.90;;;;;;;;;;5012858;28;20063;-59
2021/10/01 11:35:07;;;;;;;10.18;1.42;;;;;;;;;;5022874;28;20038;-59
2021/10/01 11:37:43;;;;;;;5.78;0.88;;;;;;;;;;5012540;28;20030;-59
2021/10/01 11:40:27;;;;;;;8.93;1.20;;;;;;;;;;5022060;28;20056;-60
2021/10/01 11:42:55;;;;;;;5.63;0.80;;;;;;;;;;5017972;28;20040;-60
2021/10/01 11:45:27;;;;;;;9.43;1.00;;;;;;;;;;5017745;28;20041;-60
2021/10/01 11:48:04;;;;;;;8.93;1.02;;;;;;;;;;5027190;28;20022;-60
2021/10/01 11:50:35;;;;;;;9.07;1.05;;;;;;;;;;5027177;28;20591;-59
2021/10/01 11:53:05;;;;;;;6.75;0.88;;;;;;;;;;5018581;28;20032;-59
2021/10/01 11:55:34;;;;;;;9.23;0.80;;;;;;;;;;5022891;28;20044;-59
2021/10/01 11:58:02;;;;;;;9.50;0.70;;;;;;;;;;5022974;28;20033;-61
2021/10/01 12:00:28;;;;;;;10.00;1.02;;;;;;;;;;5017583;28;20026;-59
2021/10/01 12:02:54;;;;;;;6.47;0.90;;;;;;;;;;5017587;28;20420;-56
2021/10/01 12:05:23;;;;;;;8.73;0.88;;;;;;;;;;5016642;28;20037;-59
2021/10/01 12:07:54;;;;;;;6.75;0.90;;;;;;;;;;5013600;28;20152;-59
2021/10/01 12:10:22;;;;;;;12.32;1.05;;;;;;;;;;5025546;28;20563;-59
2021/10/01 12:13:05;;;;;;;11.48;1.05;;;;;;;;;;5017172;28;20045;-57
2021/10/01 12:16:02;;;;;;;10.85;0.90;;;;;;;;;;5021099;28;20030;-57
2021/10/01 12:18:57;;;;;;;11.40;1.05;;;;;;;;;;5014359;28;20034;-57
2021/10/01 12:21:26;;;;;;;10.40;1.77;;;;;;;;;;5014903;28;20046;-58
2021/10/01 12:24:02;;;;;;;5.38;0.77;;;;;;;;;;5015896;28;20045;-57
2021/10/01 12:26:31;;;;;;;9.82;0.80;;;;;;;;;;5024733;28;20021;-58
2021/10/01 12:29:03;;;;;;;3.78;0.60;;;;;;;;;;5018686;28;20492;-58
2021/10/01 12:31:33;;;;;;;5.20;0.90;;;;;;;;;;5019318;28;20451;-58
2021/10/01 12:34:02;;;;;;;6.57;1.42;;;;;;;;;;5013326;28;20092;-58
2021/10/01 12:36:28;;;;;;;8.50;1.58;;;;;;;;;;5019715;28;20488;-59
2021/10/01 12:38:59;;;;;;;7.97;0.73;;;;;;;;;;5018485;28;20043;-58
2021/10/01 12:41:26;;;;;;;7.18;0.98;;;;;;;;;;5014663;28;20571;-59
2021/10/01 12:43:54;;;;;;;5.97;0.95;;;;;;;;;;5014433;28;20038;-58
2021/10/01 12:46:35;;;;;;;4.32;0.95;;;;;;;;;;5019209;28;20061;-58
2021/10/01 12:49:19;;;;;;;11.98;1.25;;;;;;;;;;5022773;28;20049;-58
2021/10/01 12:52:01;;;;;;;2.85;0.73;;;;;;;;;;5021817;28;20564;-59
2021/10/01 12:54:30;;;;;;;11.30;0.80;;;;;;;;;;5023293;28;20052;-58
2021/10/01 12:57:21;;;;;;;7.47;0.80;;;;;;;;;;5015531;28;20485;-58
2021/10/01 13:00:06;;;;;;;6.03;0.80;;;;;;;;;;5020662;28;20035;-58
2021/10/01 13:02:34;;;;;;;8.45;1.23;;;;;;;;;;5016420;28;20036;-59
2021/10/01 13:05:04;;;;;;;7.13;0.90;;;;;;;;;;5021254;28;20025;-58
2021/10/01 13:07:33;;;;;;;12.40;2.20;;;;;;;;;;5025016;28;20488;-58
2021/10/01 13:10:26;;;;;;;11.38;1.20;;;;;;;;;;5025387;28;20021;-58
2021/10/01 13:12:54;;;;;;;10.10;1.10;;;;;;;;;;5013164;28;20496;-58
2021/10/01 13:15:25;;;;;;;10.18;0.77;;;;;;;;;;5016615;28;20041;-57
2021/10/01 13:18:27;;;;;;;12.02;1.20;;;;;;;;;;5022463;28;20041;-58
2021/10/01 13:21:13;;;;;;;12.30;2.45;;;;;;;;;;5014679;28;20504;-57
2021/10/01 13:23:45;;;;;;;7.75;1.08;;;;;;;;;;5012333;28;20030;-58
2021/10/01 13:26:21;;;;;;;11.95;1.25;;;;;;;;;;5016157;28;20044;-57
2021/10/01 13:28:50;;;;;;;7.90;1.40;;;;;;;;;;5011023;28;20338;-58
2021/10/01 13:31:17;;;;;;;11.38;1.30;;;;;;;;;;5017032;28;20022;-58
2021/10/01 13:33:44;;;;;;;9.07;0.93;;;;;;;;;;5017929;28;20037;-57
2021/10/01 13:36:09;;;;;;;13.27;1.45;;;;;;;;;;5028077;28;20042;-57
2021/10/01 13:38:38;;;;;;;7.28;0.77;;;;;;;;;;5015475;28;20624;-57
2021/10/01 13:41:05;;;;;;;26.52;1.38;;;;;;;;;;5021956;28;20033;-58
2021/10/01 13:43:31;;;;;;;10.95;0.70;;;;;;;;;;5020653;28;20025;-57
2021/10/01 13:45:58;;;;;;;8.02;0.50;;;;;;;;;;5013801;28;20026;-57
2021/10/01 13:48:24;;;;;;;16.40;0.70;;;;;;;;;;5016109;28;20827;-57
2021/10/01 13:50:51;;;;;;;10.13;0.57;;;;;;;;;;5016109;28;20125;-57
2021/10/01 13:53:18;;;;;;;5.90;0.30;;;;;;;;;;5018055;28;20036;-57
2021/10/01 13:55:44;;;;;;;5.07;0.40;;;;;;;;;;5019603;28;20037;-57
2021/10/01 13:58:09;;;;;;;8.95;0.77;;;;;;;;;;5015466;28;20040;-57
2021/10/01 14:00:35;;;;;;;2.08;0.15;;;;;;;;;;5013173;28;20480;-57
2021/10/01 14:03:00;;;;;;;4.40;0.10;;;;;;;;;;5016372;28;20037;-58
2021/10/01 14:05:26;;;;;;;5.93;0.40;;;;;;;;;;5014296;28;20096;-58
2021/10/01 14:07:51;;;;;;;3.75;0.75;;;;;;;;;;5015436;28;20057;-58
2021/10/01 14:10:20;;;;;;;3.45;0.40;;;;;;;;;;5008752;28;20030;-58
2021/10/01 14:12:48;;;;;;;6.63;0.50;;;;;;;;;;5019825;28;20028;-56
2021/10/01 14:15:16;;;;;;;2.72;0.38;;;;;;;;;;5014656;28;20058;-56
2021/10/01 14:17:41;;;;;;;4.45;0.65;;;;;;;;;;5018124;28;20120;-57
2021/10/01 14:20:08;;;;;;;4.28;0.60;;;;;;;;;;5016553;28;20132;-57
2021/10/01 14:22:35;;;;;;;4.63;0.68;;;;;;;;;;5015902;28;20038;-57
2021/10/01 14:25:00;;;;;;;6.28;0.73;;;;;;;;;;5018318;28;20058;-57
2021/10/01 14:27:26;;;;;;;6.10;0.70;;;;;;;;;;5016929;28;20280;-56
2021/10/01 14:29:53;;;;;;;6.70;0.40;;;;;;;;;;5018051;28;20048;-57
2021/10/01 14:32:19;;;;;;;15.23;1.15;;;;;;;;;;5013569;28;20030;-56
2021/10/01 14:34:45;;;;;;;4.80;0.70;;;;;;;;;;5015948;28;20065;-56
2021/10/01 14:37:10;;;;;;;9.23;0.70;;;;;;;;;;5016873;28;20056;-56
2021/10/01 14:39:36;;;;;;;13.15;1.30;;;;;;;;;;5021850;28;20108;-56
2021/10/01 14:42:01;;;;;;;9.15;0.93;;;;;;;;;;5014122;28;20026;-56
2021/10/01 14:44:27;;;;;;;8.73;0.60;;;;;;;;;;5017517;28;20066;-57
2021/10/01 14:46:52;;;;;;;7.18;0.88;;;;;;;;;;5011923;28;20137;-57
2021/10/01 14:49:18;;;;;;;14.80;0.95;;;;;;;;;;5015912;28;20112;-60
2021/10/01 14:51:45;;;;;;;9.48;1.20;;;;;;;;;;5013743;28;20056;-58
2021/10/01 14:54:10;;;;;;;8.50;1.02;;;;;;;;;;5014137;28;20037;-56
2021/10/01 14:56:36;;;;;;;9.57;1.33;;;;;;;;;;5011104;28;20034;-57
2021/10/01 14:59:01;;;;;;;11.90;1.00;;;;;;;;;;5014497;28;20030;-57
2021/10/01 15:01:27;;;;;;;12.32;0.82;;;;;;;;;;5018838;28;20033;-57
2021/10/01 15:03:53;;;;;;;11.70;0.85;;;;;;;;;;5013833;28;20025;-57
2021/10/01 15:06:19;;;;;;;7.18;1.20;;;;;;;;;;5014835;28;20021;-57
2021/10/01 15:08:44;;;;;;;6.93;1.20;;;;;;;;;;5012834;28;20125;-57
2021/10/01 15:11:09;;;;;;;7.07;1.02;;;;;;;;;;5015711;28;20061;-57
2021/10/01 15:13:35;;;;;;;13.43;1.60;;;;;;;;;;5014433;28;20052;-57
2021/10/01 15:16:00;;;;;;;22.00;1.80;;;;;;;;;;5011554;28;20124;-57
2021/10/01 15:18:26;;;;;;;4.72;1.00;;;;;;;;;;5017269;28;20509;-56
2021/10/01 15:20:52;;;;;;;10.40;2.75;;;;;;;;;;5013668;28;20053;-57
2021/10/01 15:23:17;;;;;;;9.77;1.02;;;;;;;;;;5014317;28;20116;-57
2021/10/01 15:25:43;;;;;;;7.00;0.98;;;;;;;;;;5018122;28;20495;-56
2021/10/01 15:28:10;;;;;;;9.30;1.20;;;;;;;;;;5016795;28;20116;-57
2021/10/01 15:30:36;;;;;;;5.78;0.90;;;;;;;;;;5019555;28;20030;-56
2021/10/01 15:33:02;;;;;;;7.57;1.00;;;;;;;;;;5019818;28;20547;-57
